Selma, Alabama
Current Conditions -  °F | °C
As of 6:55 PM on Friday 19 Dec 2014 (Local Time) from KSEM Reporting Station
Light Rain Light Rain  
Wind Chill: 41°   Ceiling: NA
Heat Index: 46°   Visibility: 7mi
Dew Point: 45°   Wind: 10mph
Humidity: 93%   Direction: 340°NNW
Pressure: 30.18"   Gusts: NA
Location:  32.41°N, 87.02°W
Report Text: KSEM 200055Z AUTO 34009KT 7SM -RA 08/07 A3018 RMK AO2
Loading
Personal Weather Stations






























Interactive Weather Map New forecast layout! Learn more

10-Day Weather Forecast

Advertisements
Track Severe Weather on mobile